Time;durP1;ratioP1;P1;durP2;ratioP2;P2;SDS_P1;SDS_P2;PMS_P1;PMS_P2;Temp;Humidity;BMP_temperature;BMP_pressure;BME280_temperature;BME280_humidity;BME280_pressure;Samples;Min_cycle;Max_cycle;Signal;HPM_P1;HPM_P2
2023/08/18 04:12:52;;;;;;;5.03;3.00;;;;;;;19.58;100.00;100388.97;5558574;32;312059;-84
2023/08/18 04:15:57;;;;;;;3.12;2.60;;;;;;;19.59;100.00;100401.44;5558015;32;33471;-88
2023/08/18 04:19:03;;;;;;;4.90;2.72;;;;;;;19.65;100.00;100394.66;5558266;32;34100;-88
2023/08/18 04:22:07;;;;;;;2.65;2.33;;;;;;;19.71;100.00;100394.13;5547433;32;33996;-85
2023/08/18 04:25:10;;;;;;;3.22;2.58;;;;;;;19.79;100.00;100397.00;5546605;32;34163;-86
2023/08/18 04:28:13;;;;;;;3.47;2.60;;;;;;;19.91;100.00;100394.19;5546253;32;33729;-85
2023/08/18 04:31:16;;;;;;;3.33;2.65;;;;;;;19.99;100.00;100397.09;5546572;32;33205;-85
2023/08/18 04:34:20;;;;;;;2.78;2.50;;;;;;;20.08;100.00;100394.53;5546392;32;33873;-85
2023/08/18 04:37:22;;;;;;;2.80;2.20;;;;;;;20.12;100.00;100396.81;5545566;32;33718;-85
2023/08/18 04:40:26;;;;;;;3.37;2.47;;;;;;;20.12;100.00;100412.12;5545511;32;33760;-85
2023/08/18 04:43:31;;;;;;;2.30;2.10;;;;;;;20.16;100.00;100403.63;5546803;32;33379;-85
2023/08/18 04:46:34;;;;;;;4.00;2.60;;;;;;;20.23;100.00;100400.38;5547242;32;33953;-85
2023/08/18 04:49:37;;;;;;;4.20;2.72;;;;;;;20.32;100.00;100410.34;5546575;32;33592;-85
2023/08/18 04:52:41;;;;;;;2.72;1.95;;;;;;;20.35;100.00;100417.31;5546056;32;33938;-85
2023/08/18 04:55:44;;;;;;;2.40;2.20;;;;;;;20.48;100.00;100423.25;5546129;32;33460;-86
2023/08/18 04:58:48;;;;;;;2.30;2.00;;;;;;;20.52;100.00;100419.28;5545813;32;33897;-85
2023/08/18 05:01:52;;;;;;;2.05;1.92;;;;;;;20.61;100.00;100417.59;5545642;32;34635;-85
2023/08/18 05:04:55;;;;;;;2.67;2.20;;;;;;;20.73;100.00;100419.16;5545267;32;34987;-86
2023/08/18 05:07:57;;;;;;;3.08;2.35;;;;;;;20.81;100.00;100425.69;5545506;32;34445;-86
2023/08/18 05:11:11;;;;;;;2.30;2.00;;;;;;;20.96;100.00;100429.69;5545281;32;34142;-86
2023/08/18 05:14:13;;;;;;;3.28;2.20;;;;;;;21.11;100.00;100424.69;5545890;32;33808;-86
2023/08/18 05:17:16;;;;;;;2.62;2.33;;;;;;;21.20;100.00;100424.81;5545304;32;34230;-86
2023/08/18 05:20:19;;;;;;;2.22;2.03;;;;;;;21.30;100.00;100417.56;5545279;32;34111;-85
2023/08/18 05:23:22;;;;;;;2.12;1.90;;;;;;;21.39;100.00;100432.88;5537039;32;34012;-85
2023/08/18 05:26:24;;;;;;;2.40;2.20;;;;;;;21.51;100.00;100432.69;5532209;32;34080;-85
2023/08/18 05:29:27;;;;;;;2.40;2.20;;;;;;;21.53;100.00;100434.25;5532449;32;33701;-86
2023/08/18 05:32:30;;;;;;;2.83;1.98;;;;;;;21.50;100.00;100448.06;5532018;32;34661;-86
2023/08/18 05:35:34;;;;;;;2.40;2.20;;;;;;;21.84;100.00;100437.72;5533525;32;34499;-86
2023/08/18 05:38:36;;;;;;;2.62;2.40;;;;;;;21.95;100.00;100445.62;5532415;32;34340;-86
2023/08/18 05:41:39;;;;;;;3.87;2.62;;;;;;;21.99;100.00;100448.88;5533054;32;33818;-86
2023/08/18 05:44:42;;;;;;;2.35;2.15;;;;;;;21.93;100.00;100448.47;5532349;32;33636;-86
2023/08/18 05:47:45;;;;;;;3.17;2.50;;;;;;;22.01;100.00;100445.03;5532203;32;33690;-86
2023/08/18 05:50:48;;;;;;;2.87;2.58;;;;;;;22.30;100.00;100454.84;5531585;32;33701;-86
2023/08/18 05:53:51;;;;;;;3.15;2.37;;;;;;;22.57;100.00;100455.81;5530630;32;33529;-86
2023/08/18 05:56:53;;;;;;;2.58;2.33;;;;;;;22.80;100.00;100452.69;5532033;32;33994;-86
2023/08/18 05:59:56;;;;;;;3.37;2.50;;;;;;;22.90;100.00;100458.00;5531933;32;34520;-86
2023/08/18 06:02:59;;;;;;;2.15;1.98;;;;;;;23.17;100.00;100453.47;5530944;32;33670;-87
2023/08/18 06:06:02;;;;;;;3.10;2.80;;;;;;;23.21;100.00;100452.16;5534312;32;34781;-86
2023/08/18 06:09:08;;;;;;;2.92;2.35;;;;;;;23.75;100.00;100450.31;5534069;32;33609;-87
2023/08/18 06:12:11;;;;;;;2.87;2.30;;;;;;;24.38;100.00;100450.09;5530176;32;35099;-87
2023/08/18 06:15:15;;;;;;;2.85;2.28;;;;;;;25.28;100.00;100453.91;5531022;32;34369;-87
2023/08/18 06:18:18;;;;;;;2.80;1.90;;;;;;;25.92;100.00;100447.69;5534865;32;33936;-87
2023/08/18 06:21:21;;;;;;;2.53;1.37;;;;;;;26.01;100.00;100453.94;5546254;32;34020;-87
2023/08/18 06:24:24;;;;;;;2.42;1.85;;;;;;;25.99;100.00;100449.69;5546000;32;34714;-88
2023/08/18 06:27:26;;;;;;;1.75;1.65;;;;;;;25.92;100.00;100447.69;5539570;32;34989;-91
2023/08/18 06:30:29;;;;;;;1.83;1.65;;;;;;;25.09;100.00;100455.13;5531113;32;34090;-92
2023/08/18 06:33:33;;;;;;;2.20;2.00;;;;;;;25.23;100.00;100449.00;5529617;32;33649;-91
2023/08/18 06:36:36;;;;;;;2.22;1.80;;;;;;;25.00;100.00;100452.41;5529759;32;33645;-89
2023/08/18 06:39:39;;;;;;;2.08;1.95;;;;;;;24.72;100.00;100451.84;5530757;32;33658;-87
2023/08/18 06:42:42;;;;;;;2.40;1.98;;;;;;;24.94;100.00;100452.25;5530793;32;34540;-87
2023/08/18 06:45:45;;;;;;;2.03;1.90;;;;;;;24.84;100.00;100455.13;5530698;32;33991;-88
2023/08/18 06:48:48;;;;;;;2.22;2.03;;;;;;;25.21;100.00;100450.19;5530254;32;34356;-87
2023/08/18 06:51:50;;;;;;;2.05;1.80;;;;;;;25.78;100.00;100451.97;5533442;32;33906;-87
2023/08/18 06:54:53;;;;;;;2.05;1.90;;;;;;;25.83;100.00;100454.16;5531289;32;33331;-88
2023/08/18 06:57:57;;;;;;;2.50;1.83;;;;;;;25.78;100.00;100451.97;5530298;32;34281;-87
2023/08/18 07:01:00;;;;;;;2.28;2.03;;;;;;;25.79;100.00;100452.84;5529806;32;33787;-88
2023/08/18 07:04:04;;;;;;;2.40;2.20;;;;;;;25.92;100.00;100463.97;5529522;32;34308;-88
2023/08/18 07:07:07;;;;;;;2.28;2.00;;;;;;;25.59;100.00;100469.50;5529792;32;34056;-87
2023/08/18 07:10:09;;;;;;;2.92;1.92;;;;;;;25.42;100.00;100474.09;5529534;32;33884;-88
2023/08/18 07:13:12;;;;;;;3.12;2.28;;;;;;;25.20;100.00;100464.78;5529608;32;33893;-88
2023/08/18 07:16:15;;;;;;;1.98;1.87;;;;;;;25.51;100.00;100473.06;5530473;32;33837;-87
2023/08/18 07:19:18;;;;;;;2.62;2.40;;;;;;;26.17;100.00;100469.31;5530296;32;33652;-87
2023/08/18 07:22:20;;;;;;;2.05;1.73;;;;;;;27.18;100.00;100473.12;5530167;32;33468;-87
2023/08/18 07:25:24;;;;;;;2.60;2.00;;;;;;;26.88;100.00;100479.28;5530322;32;33767;-86
2023/08/18 07:28:27;;;;;;;3.03;2.40;;;;;;;26.19;100.00;100480.84;5530360;32;33993;-88
2023/08/18 07:31:30;;;;;;;2.12;1.92;;;;;;;25.81;100.00;100469.78;5533916;32;34430;-86
2023/08/18 07:34:33;;;;;;;2.10;1.80;;;;;;;25.76;100.00;100473.03;5538544;32;34190;-86
2023/08/18 07:37:36;;;;;;;2.90;2.10;;;;;;;25.63;100.00;100475.44;5536534;32;34062;-86
2023/08/18 07:40:57;;;;;;;2.53;2.33;;;;;;;25.46;100.00;100472.72;5535394;32;34114;-85
2023/08/18 07:44:00;;;;;;;2.37;2.17;;;;;;;25.49;100.00;100477.81;5534042;32;34130;-86
2023/08/18 07:47:03;;;;;;;2.33;2.12;;;;;;;25.43;100.00;100476.63;5532992;32;34030;-86
2023/08/18 07:50:08;;;;;;;2.40;1.98;;;;;;;25.62;100.00;100473.75;5532605;32;33827;-86
2023/08/18 07:53:11;;;;;;;2.40;2.08;;;;;;;25.67;100.00;100487.66;5531708;32;33586;-86
2023/08/18 07:56:14;;;;;;;1.95;1.85;;;;;;;25.65;100.00;100482.38;5531127;32;34043;-86
2023/08/18 07:59:16;;;;;;;2.85;2.22;;;;;;;25.61;100.00;100494.63;5532205;32;33575;-86
2023/08/18 08:02:19;;;;;;;2.25;2.05;;;;;;;25.67;100.00;100493.94;5531850;32;34447;-86
2023/08/18 08:05:32;;;;;;;2.33;2.12;;;;;;;25.34;100.00;100498.53;5529318;32;34718;-86
2023/08/18 08:08:35;;;;;;;2.55;2.30;;;;;;;25.33;100.00;100513.12;5530887;32;33790;-86
2023/08/18 08:11:38;;;;;;;2.85;2.55;;;;;;;25.16;100.00;100505.81;5533968;32;33854;-87
2023/08/18 08:14:41;;;;;;;2.42;2.22;;;;;;;25.29;100.00;100501.78;5530556;32;33931;-86
2023/08/18 08:17:44;;;;;;;2.12;1.92;;;;;;;25.22;100.00;100511.59;5529818;32;34009;-86
2023/08/18 08:20:46;;;;;;;2.67;2.45;;;;;;;25.27;100.00;100515.50;5531216;32;33429;-86
2023/08/18 08:23:49;;;;;;;2.83;2.58;;;;;;;25.46;100.00;100512.59;5530023;32;33688;-87
2023/08/18 08:26:52;;;;;;;2.22;2.03;;;;;;;26.08;100.00;100514.72;5530435;32;33862;-87
2023/08/18 08:29:59;;;;;;;3.10;2.17;;;;;;;26.95;100.00;100514.81;5529941;32;34118;-90
2023/08/18 08:33:04;;;;;;;2.35;2.15;;;;;;;27.34;100.00;100523.03;5529879;32;34340;-90
2023/08/18 08:36:08;;;;;;;2.75;2.53;;;;;;;27.31;100.00;100527.78;5530340;32;34140;-91
2023/08/18 08:39:10;;;;;;;2.47;1.87;;;;;;;27.23;100.00;100535.19;5530176;32;33869;-87
2023/08/18 08:42:13;;;;;;;2.30;2.10;;;;;;;26.95;100.00;100533.84;5529587;32;33558;-87
2023/08/18 08:45:16;;;;;;;3.58;2.67;;;;;;;27.07;100.00;100528.84;5529414;32;34165;-87
2023/08/18 08:48:21;;;;;;;2.33;2.12;;;;;;;27.30;100.00;100528.00;5530389;32;33934;-86
2023/08/18 08:51:27;;;;;;;2.72;2.50;;;;;;;27.96;100.00;100526.53;5530739;32;33998;-86
2023/08/18 08:54:33;;;;;;;1.95;1.85;;;;;;;29.04;100.00;100527.84;5529466;32;34078;-86
2023/08/18 08:57:36;;;;;;;2.28;2.12;;;;;;;29.81;93.38;100533.53;5530085;32;33422;-86
2023/08/18 09:00:39;;;;;;;2.62;2.05;;;;;;;29.63;85.65;100531.31;5528573;32;33834;-86
2023/08/18 09:03:43;;;;;;;2.35;2.00;;;;;;;29.58;77.98;100525.59;5512471;32;33860;-86
2023/08/18 09:06:48;;;;;;;2.45;2.25;;;;;;;29.98;73.46;100519.53;5511841;32;34167;-86
2023/08/18 09:09:50;;;;;;;2.35;2.15;;;;;;;30.04;71.00;100515.16;5512286;32;34144;-86
2023/08/18 09:12:54;;;;;;;1.98;1.87;;;;;;;30.15;72.13;100528.28;5474904;32;33408;-86
2023/08/18 09:15:57;;;;;;;2.42;2.22;;;;;;;29.54;72.18;100519.69;5475994;32;34487;-86
2023/08/18 09:19:01;;;;;;;2.37;2.17;;;;;;;29.42;74.32;100516.59;5474927;32;34523;-86
2023/08/18 09:22:04;;;;;;;2.65;2.45;;;;;;;29.19;72.70;100506.78;5474112;32;33550;-86
2023/08/18 09:25:08;;;;;;;2.33;2.12;;;;;;;30.00;71.59;100503.78;5473767;32;33528;-86
2023/08/18 09:28:11;;;;;;;2.62;2.42;;;;;;;30.85;63.22;100505.41;5473245;32;33885;-86
2023/08/18 09:31:21;;;;;;;2.22;2.03;;;;;;;30.98;64.47;100507.31;5474503;32;34477;-86
2023/08/18 09:34:24;;;;;;;2.75;2.20;;;;;;;31.13;64.91;100503.53;5472964;32;33466;-86
2023/08/18 09:37:31;;;;;;;2.10;1.95;;;;;;;30.47;64.56;100506.72;5473596;32;33873;-87
2023/08/18 09:40:33;;;;;;;2.30;2.10;;;;;;;30.04;67.40;100509.69;5473433;32;34372;-86
2023/08/18 09:43:37;;;;;;;2.90;2.53;;;;;;;29.52;70.44;100510.81;5473457;32;33773;-86
2023/08/18 09:46:42;;;;;;;2.37;2.10;;;;;;;29.49;72.88;100508.50;5473282;32;34581;-86
2023/08/18 09:49:47;;;;;;;2.67;2.47;;;;;;;29.31;71.42;100508.97;5473711;32;33579;-86
2023/08/18 09:52:53;;;;;;;2.87;2.67;;;;;;;29.17;73.76;100495.19;5475101;32;33897;-86
2023/08/18 09:56:13;;;;;;;2.90;2.40;;;;;;;29.04;75.49;100498.66;5472987;32;35211;-86
2023/08/18 09:59:17;;;;;;;2.40;2.20;;;;;;;29.04;72.48;100495.94;5473645;32;34521;-87
2023/08/18 10:02:24;;;;;;;1.83;1.73;;;;;;;28.82;73.39;100491.47;5490493;32;33983;-87
2023/08/18 10:05:27;;;;;;;2.50;2.30;;;;;;;28.77;77.12;100481.97;5491789;32;34307;-87
2023/08/18 10:08:31;;;;;;;2.55;2.35;;;;;;;28.30;75.52;100489.66;5492551;32;34468;-87
2023/08/18 10:11:35;;;;;;;2.50;2.30;;;;;;;28.58;75.96;100494.37;5513713;32;33500;-88
2023/08/18 10:14:54;;;;;;;3.30;2.67;;;;;;;28.52;77.58;100497.87;5532320;32;33469;-87
2023/08/18 10:17:57;;;;;;;2.78;2.17;;;;;;;28.96;75.20;100496.03;5536660;32;33906;-86
2023/08/18 10:21:00;;;;;;;3.17;2.80;;;;;;;29.00;77.34;100491.03;5534562;32;33839;-86
2023/08/18 10:24:03;;;;;;;3.35;2.70;;;;;;;28.96;75.50;100495.22;5536323;32;33800;-86
2023/08/18 10:27:10;;;;;;;2.40;2.17;;;;;;;28.89;74.09;100485.09;5534832;32;33822;-86
2023/08/18 10:30:13;;;;;;;2.53;2.33;;;;;;;28.76;75.03;100484.94;5533141;32;33372;-86
2023/08/18 10:33:28;;;;;;;2.45;2.25;;;;;;;28.79;75.17;100490.84;5532542;32;33920;-87
2023/08/18 10:36:31;;;;;;;2.40;2.20;;;;;;;29.55;74.08;100485.84;5532942;32;33678;-86
2023/08/18 10:39:40;;;;;;;2.65;2.40;;;;;;;30.57;67.62;100489.91;5531446;32;34526;-87
2023/08/18 10:42:43;;;;;;;2.42;2.22;;;;;;;30.73;63.47;100499.69;5530107;32;34781;-87
2023/08/18 10:45:50;;;;;;;2.35;2.22;;;;;;;30.75;62.31;100499.47;5530057;32;33503;-88
2023/08/18 10:48:53;;;;;;;3.67;2.58;;;;;;;31.45;60.38;100496.38;5530512;32;33452;-87
2023/08/18 10:51:57;;;;;;;2.53;2.08;;;;;;;32.92;56.66;100487.78;5530896;32;33955;-88
2023/08/18 10:54:59;;;;;;;2.25;2.12;;;;;;;33.25;54.73;100493.28;5530255;32;34179;-88
2023/08/18 10:58:03;;;;;;;2.22;2.08;;;;;;;31.93;59.19;100490.84;5529690;32;33944;-87
2023/08/18 11:01:09;;;;;;;2.40;2.20;;;;;;;31.51;62.11;100485.63;5550462;32;33773;-86
2023/08/18 11:04:13;;;;;;;2.25;2.05;;;;;;;31.23;61.25;100487.53;5551849;32;34901;-87
2023/08/18 11:07:18;;;;;;;2.17;1.98;;;;;;;31.28;61.78;100486.91;5548235;32;33443;-88
2023/08/18 11:10:23;;;;;;;2.25;2.05;;;;;;;31.56;60.30;100480.31;5535080;32;34941;-88
2023/08/18 11:13:28;;;;;;;2.22;2.03;;;;;;;31.53;56.71;100489.00;5530506;32;34797;-88
2023/08/18 11:16:34;;;;;;;2.37;2.15;;;;;;;31.34;58.94;100488.81;5531285;32;34631;-87
2023/08/18 11:19:37;;;;;;;2.30;2.10;;;;;;;32.14;58.58;100486.97;5529856;32;33888;-86
2023/08/18 11:22:45;;;;;;;2.70;2.47;;;;;;;33.27;54.08;100485.66;5530849;32;34345;-86
2023/08/18 11:25:48;;;;;;;2.67;2.45;;;;;;;32.29;57.66;100472.97;5533516;32;34323;-85
2023/08/18 11:28:51;;;;;;;3.90;2.62;;;;;;;31.84;60.02;100482.81;5541250;32;34342;-86
2023/08/18 11:31:54;;;;;;;2.60;2.40;;;;;;;31.73;60.18;100483.47;5546090;32;35277;-86
2023/08/18 11:34:57;;;;;;;2.33;2.12;;;;;;;31.80;58.44;100478.81;5545511;32;34133;-86
2023/08/18 11:38:01;;;;;;;2.33;2.00;;;;;;;31.49;58.15;100482.25;5538862;32;34018;-86
2023/08/18 11:41:04;;;;;;;2.20;1.98;;;;;;;31.54;59.15;100475.09;5531241;32;34600;-86
2023/08/18 11:44:08;;;;;;;2.15;2.03;;;;;;;31.01;58.93;100467.69;5530367;32;33793;-86
2023/08/18 11:47:12;;;;;;;2.50;2.30;;;;;;;30.43;61.49;100469.91;5530085;32;33637;-86
2023/08/18 11:50:21;;;;;;;4.18;2.50;;;;;;;30.28;62.15;100472.81;5530013;32;34071;-88
2023/08/18 11:53:25;;;;;;;2.53;2.33;;;;;;;30.38;63.72;100472.41;5529855;32;34560;-89
2023/08/18 11:56:31;;;;;;;2.75;2.25;;;;;;;30.20;61.58;100471.09;5529945;32;31837;-86
2023/08/18 11:59:34;;;;;;;2.78;2.37;;;;;;;30.19;63.12;100457.59;5530074;32;33804;-86
2023/08/18 12:02:47;;;;;;;2.28;2.08;;;;;;;30.32;62.47;100459.56;5529280;32;33914;-86
2023/08/18 12:05:51;;;;;;;2.15;1.98;;;;;;;30.51;61.04;100457.91;5530617;32;33932;-86
2023/08/18 12:08:53;;;;;;;2.33;2.12;;;;;;;30.77;62.48;100456.31;5531093;32;33937;-86
2023/08/18 12:11:56;;;;;;;2.37;2.17;;;;;;;31.06;59.79;100452.31;5529672;32;34450;-86
2023/08/18 12:14:59;;;;;;;2.60;2.40;;;;;;;30.23;63.78;100450.69;5529533;32;33711;-86
2023/08/18 12:18:02;;;;;;;2.25;2.00;;;;;;;30.55;60.84;100441.91;5530399;32;33876;-86
2023/08/18 12:21:05;;;;;;;2.08;1.80;;;;;;;30.06;61.36;100439.25;5529870;32;34644;-86
2023/08/18 12:24:08;;;;;;;2.30;2.10;;;;;;;29.94;59.39;100434.34;5529242;32;34951;-86
2023/08/18 12:27:10;;;;;;;2.17;2.08;;;;;;;29.88;61.51;100434.31;5528965;32;33806;-88
2023/08/18 12:30:14;;;;;;;2.33;2.12;;;;;;;30.10;60.31;100426.84;5528450;32;35036;-88
2023/08/18 12:33:19;;;;;;;1.90;1.80;;;;;;;30.26;60.36;100429.22;5529760;32;33651;-88
2023/08/18 12:36:22;;;;;;;2.10;1.90;;;;;;;30.42;59.85;100429.87;5530851;32;33457;-87
2023/08/18 12:39:24;;;;;;;2.28;1.62;;;;;;;30.59;59.24;100433.09;5530563;32;34075;-88
2023/08/18 12:42:30;;;;;;;1.65;1.55;;;;;;;30.49;59.48;100428.03;5530795;32;34027;-87
2023/08/18 12:45:33;;;;;;;1.83;1.70;;;;;;;30.71;59.88;100436.06;5530478;32;33833;-87
2023/08/18 12:48:36;;;;;;;2.40;1.98;;;;;;;30.57;58.43;100434.34;5530866;32;33963;-87
2023/08/18 12:51:39;;;;;;;2.20;2.03;;;;;;;30.81;59.10;100443.87;5530906;32;34059;-87
2023/08/18 12:54:42;;;;;;;2.60;1.85;;;;;;;30.61;59.66;100432.91;5530801;32;33614;-87
2023/08/18 12:57:45;;;;;;;2.03;1.90;;;;;;;30.74;59.47;100438.41;5531683;32;34615;-87
2023/08/18 13:00:48;;;;;;;1.85;1.52;;;;;;;30.39;59.38;100439.38;5544511;32;33846;-85
2023/08/18 13:03:51;;;;;;;1.90;1.77;;;;;;;29.90;59.52;100432.19;5537859;32;34956;-85
2023/08/18 13:06:54;;;;;;;1.92;1.70;;;;;;;29.92;61.57;100438.34;5545364;32;36209;-85
2023/08/18 13:09:57;;;;;;;1.80;1.70;;;;;;;30.17;61.17;100435.91;5536164;32;34124;-86
2023/08/18 13:13:00;;;;;;;2.22;2.03;;;;;;;29.76;62.64;100434.06;5534568;32;33941;-85
2023/08/18 13:16:02;;;;;;;2.12;1.75;;;;;;;29.71;63.15;100427.28;5532216;32;33951;-86
2023/08/18 13:19:05;;;;;;;2.30;2.10;;;;;;;29.58;64.59;100419.03;5531281;32;33743;-86
2023/08/18 13:22:08;;;;;;;1.83;1.60;;;;;;;29.49;65.54;100412.03;5532882;32;34887;-86
2023/08/18 13:25:12;;;;;;;1.77;1.67;;;;;;;29.82;64.34;100406.72;5536574;32;34084;-87
2023/08/18 13:28:16;;;;;;;2.30;1.98;;;;;;;29.96;63.35;100404.91;5532535;32;34072;-87
2023/08/18 13:31:19;;;;;;;2.42;1.73;;;;;;;29.53;66.10;100407.84;5535095;32;34676;-85
2023/08/18 13:34:22;;;;;;;2.05;1.62;;;;;;;29.44;66.21;100418.06;5535617;32;34705;-85
2023/08/18 13:37:28;;;;;;;2.75;2.45;;;;;;;29.35;65.75;100417.38;5535161;32;34602;-85
2023/08/18 13:40:30;;;;;;;2.15;1.90;;;;;;;29.15;67.94;100417.22;5532737;32;33872;-87
2023/08/18 13:43:33;;;;;;;1.85;1.75;;;;;;;28.88;68.23;100422.47;5531904;32;33608;-86
2023/08/18 13:46:36;;;;;;;2.37;2.08;;;;;;;28.87;67.82;100421.62;5542729;32;34854;-84
2023/08/18 13:49:39;;;;;;;2.15;1.95;;;;;;;28.78;68.31;100418.19;5550680;32;34749;-88
2023/08/18 13:52:41;;;;;;;2.10;1.90;;;;;;;28.76;66.36;100416.69;5550584;32;33705;-87
2023/08/18 13:55:44;;;;;;;2.30;2.00;;;;;;;28.69;66.89;100418.50;5540190;32;34095;-87
2023/08/18 13:58:47;;;;;;;2.80;2.17;;;;;;;28.87;65.02;100423.53;5531587;32;33659;-90
2023/08/18 14:01:50;;;;;;;1.98;1.75;;;;;;;28.75;65.26;100414.97;5531409;32;34225;-89
2023/08/18 14:04:53;;;;;;;2.12;1.92;;;;;;;28.82;64.97;100418.62;5532873;32;34063;-90
2023/08/18 14:07:55;;;;;;;2.40;2.20;;;;;;;28.74;67.24;100422.34;5533284;32;33962;-90
2023/08/18 14:10:58;;;;;;;2.37;2.17;;;;;;;28.71;68.03;100414.53;5533168;32;34466;-86
2023/08/18 14:14:01;;;;;;;2.67;1.87;;;;;;;28.47;68.82;100419.34;5532667;32;33841;-86
2023/08/18 14:17:07;;;;;;;2.72;1.92;;;;;;;28.49;66.12;100424.59;5532241;32;34441;-86
2023/08/18 14:20:14;;;;;;;1.98;1.77;;;;;;;28.49;64.39;100428.19;5533456;32;34446;-86
2023/08/18 14:23:17;;;;;;;2.08;1.60;;;;;;;28.47;65.02;100429.41;5533764;32;34096;-86
2023/08/18 14:26:20;;;;;;;2.08;1.87;;;;;;;28.41;64.76;100438.38;5531326;32;34462;-86
2023/08/18 14:29:24;;;;;;;2.00;1.90;;;;;;;28.52;63.28;100438.69;5533520;32;34051;-86
2023/08/18 14:32:26;;;;;;;1.90;1.62;;;;;;;28.32;64.55;100437.66;5534879;32;34395;-85
2023/08/18 14:35:29;;;;;;;2.85;1.95;;;;;;;28.08;65.20;100436.91;5534660;32;33904;-85
2023/08/18 14:38:32;;;;;;;1.92;1.80;;;;;;;28.05;66.86;100440.87;5535168;32;34873;-85
2023/08/18 14:41:35;;;;;;;3.35;2.20;;;;;;;27.83;68.67;100438.09;5535944;32;33949;-86
2023/08/18 14:44:37;;;;;;;2.25;2.03;;;;;;;27.52;70.80;100447.25;5534610;32;33954;-86
2023/08/18 14:47:40;;;;;;;2.08;1.87;;;;;;;27.51;71.66;100452.88;5536306;32;34819;-86
2023/08/18 14:50:43;;;;;;;3.45;1.83;;;;;;;27.42;71.22;100449.41;5537480;32;34235;-86
2023/08/18 14:53:48;;;;;;;2.33;1.80;;;;;;;27.40;70.21;100449.59;5537408;32;33868;-85
2023/08/18 14:56:50;;;;;;;1.83;1.73;;;;;;;27.28;70.56;100441.03;5539810;32;34170;-85
2023/08/18 14:59:53;;;;;;;2.40;2.03;;;;;;;27.27;70.95;100433.91;5540321;32;35153;-85
2023/08/18 15:02:57;;;;;;;2.20;2.00;;;;;;;27.14;76.30;100431.81;5536696;32;34926;-85
2023/08/18 15:06:00;;;;;;;2.92;2.20;;;;;;;27.00;75.22;100432.63;5535786;32;34082;-86
2023/08/18 15:09:03;;;;;;;1.87;1.77;;;;;;;27.03;74.15;100433.09;5535151;32;35654;-86
2023/08/18 15:12:07;;;;;;;2.03;1.87;;;;;;;26.84;83.32;100423.53;5535827;32;34160;-86
2023/08/18 15:15:10;;;;;;;2.40;1.87;;;;;;;27.03;74.86;100418.62;5534934;32;33999;-85
2023/08/18 15:18:13;;;;;;;2.03;1.90;;;;;;;27.12;70.82;100413.97;5535773;32;34048;-86
2023/08/18 15:21:16;;;;;;;1.70;1.60;;;;;;;27.17;73.09;100409.63;5535637;32;34036;-86
2023/08/18 15:24:20;;;;;;;2.03;1.67;;;;;;;27.10;71.35;100408.69;5534872;32;34649;-85
2023/08/18 15:27:22;;;;;;;1.73;1.62;;;;;;;27.06;73.91;100406.53;5534447;32;33729;-85
2023/08/18 15:30:26;;;;;;;2.20;2.00;;;;;;;26.98;73.73;100400.13;5535101;32;33852;-86
